sensor_id;sensor_type;location;lat;lon;timestamp;pressure;altitude;pressure_sealevel;temperature;humidity
2178;BME280;1095;50.992;6.798;2023-05-24T00:01:46;101576.03;;;8.76;83.45
2178;BME280;1095;50.992;6.798;2023-05-24T00:04:12;101575.69;;;8.69;83.75
2178;BME280;1095;50.992;6.798;2023-05-24T00:06:40;101582.81;;;8.67;83.92
2178;BME280;1095;50.992;6.798;2023-05-24T00:09:07;101584.56;;;8.67;83.81
2178;BME280;1095;50.992;6.798;2023-05-24T00:11:35;101581.03;;;8.68;83.89
2178;BME280;1095;50.992;6.798;2023-05-24T00:14:01;101582.91;;;8.65;83.84
2178;BME280;1095;50.992;6.798;2023-05-24T00:16:28;101585.16;;;8.70;83.70
2178;BME280;1095;50.992;6.798;2023-05-24T00:18:54;101578.78;;;8.63;83.61
2178;BME280;1095;50.992;6.798;2023-05-24T00:21:23;101582.91;;;8.65;83.41
2178;BME280;1095;50.992;6.798;2023-05-24T00:23:50;101586.13;;;8.58;83.56
2178;BME280;1095;50.992;6.798;2023-05-24T00:26:17;101578.91;;;8.50;83.59
2178;BME280;1095;50.992;6.798;2023-05-24T00:28:44;101584.25;;;8.49;83.38
2178;BME280;1095;50.992;6.798;2023-05-24T00:31:11;101576.91;;;8.43;83.65
2178;BME280;1095;50.992;6.798;2023-05-24T00:33:38;101581.41;;;8.41;83.78
2178;BME280;1095;50.992;6.798;2023-05-24T00:36:05;101586.38;;;8.32;84.42
2178;BME280;1095;50.992;6.798;2023-05-24T00:38:31;101583.38;;;8.26;84.89
2178;BME280;1095;50.992;6.798;2023-05-24T00:40:58;101589.41;;;8.15;85.37
2178;BME280;1095;50.992;6.798;2023-05-24T00:43:25;101587.97;;;8.11;85.52
2178;BME280;1095;50.992;6.798;2023-05-24T00:46:11;101588.94;;;8.10;86.00
2178;BME280;1095;50.992;6.798;2023-05-24T00:48:38;101594.84;;;8.12;86.13
2178;BME280;1095;50.992;6.798;2023-05-24T00:51:05;101591.06;;;8.05;86.10
2178;BME280;1095;50.992;6.798;2023-05-24T00:53:32;101585.50;;;7.98;86.26
2178;BME280;1095;50.992;6.798;2023-05-24T00:56:01;101582.28;;;7.95;86.50
2178;BME280;1095;50.992;6.798;2023-05-24T00:58:28;101576.47;;;7.91;86.69
2178;BME280;1095;50.992;6.798;2023-05-24T01:00:59;101577.41;;;7.90;86.80
2178;BME280;1095;50.992;6.798;2023-05-24T01:03:26;101593.19;;;7.89;86.82
2178;BME280;1095;50.992;6.798;2023-05-24T01:05:54;101595.28;;;7.84;87.21
2178;BME280;1095;50.992;6.798;2023-05-24T01:08:33;101595.53;;;7.81;87.35
2178;BME280;1095;50.992;6.798;2023-05-24T01:11:05;101593.03;;;7.79;87.48
2178;BME280;1095;50.992;6.798;2023-05-24T01:13:43;101593.38;;;7.75;87.73
2178;BME280;1095;50.992;6.798;2023-05-24T01:16:15;101592.19;;;7.79;87.83
2178;BME280;1095;50.992;6.798;2023-05-24T01:18:46;101579.84;;;7.70;87.83
2178;BME280;1095;50.992;6.798;2023-05-24T01:21:28;101593.81;;;7.69;88.08
2178;BME280;1095;50.992;6.798;2023-05-24T01:24:12;101579.34;;;7.64;88.04
2178;BME280;1095;50.992;6.798;2023-05-24T01:26:55;101581.03;;;7.65;88.43
2178;BME280;1095;50.992;6.798;2023-05-24T01:29:24;101579.59;;;7.61;88.46
2178;BME280;1095;50.992;6.798;2023-05-24T01:31:51;101579.47;;;7.63;88.40
2178;BME280;1095;50.992;6.798;2023-05-24T01:34:19;101586.47;;;7.62;88.78
2178;BME280;1095;50.992;6.798;2023-05-24T01:36:45;101588.81;;;7.54;88.92
2178;BME280;1095;50.992;6.798;2023-05-24T01:39:12;101584.28;;;7.45;89.43
2178;BME280;1095;50.992;6.798;2023-05-24T01:41:43;101573.09;;;7.32;89.89
2178;BME280;1095;50.992;6.798;2023-05-24T01:44:18;101571.66;;;7.28;90.43
2178;BME280;1095;50.992;6.798;2023-05-24T01:46:56;101572.72;;;7.25;90.90
2178;BME280;1095;50.992;6.798;2023-05-24T01:49:30;101572.50;;;7.28;90.94
2178;BME280;1095;50.992;6.798;2023-05-24T01:52:02;101577.53;;;7.19;91.11
2178;BME280;1095;50.992;6.798;2023-05-24T01:54:32;101574.94;;;7.19;91.51
2178;BME280;1095;50.992;6.798;2023-05-24T01:57:05;101575.16;;;7.16;91.93
2178;BME280;1095;50.992;6.798;2023-05-24T01:59:34;101564.63;;;7.17;92.12
2178;BME280;1095;50.992;6.798;2023-05-24T02:02:01;101564.13;;;7.12;92.19
2178;BME280;1095;50.992;6.798;2023-05-24T02:04:30;101568.59;;;7.10;92.60
2178;BME280;1095;50.992;6.798;2023-05-24T02:06:56;101559.72;;;7.02;92.63
2178;BME280;1095;50.992;6.798;2023-05-24T02:09:23;101569.41;;;6.99;92.89
2178;BME280;1095;50.992;6.798;2023-05-24T02:11:50;101578.59;;;6.92;93.13
2178;BME280;1095;50.992;6.798;2023-05-24T02:14:16;101574.75;;;6.85;93.36
2178;BME280;1095;50.992;6.798;2023-05-24T02:16:45;101567.06;;;6.84;93.97
2178;BME280;1095;50.992;6.798;2023-05-24T02:19:15;101572.25;;;6.84;93.82
2178;BME280;1095;50.992;6.798;2023-05-24T02:21:42;101572.25;;;6.84;94.35
2178;BME280;1095;50.992;6.798;2023-05-24T02:24:08;101573.31;;;6.81;94.39
2178;BME280;1095;50.992;6.798;2023-05-24T02:26:35;101589.97;;;6.79;94.31
2178;BME280;1095;50.992;6.798;2023-05-24T02:29:02;101580.59;;;6.76;94.46
2178;BME280;1095;50.992;6.798;2023-05-24T02:31:29;101580.38;;;6.79;94.72
2178;BME280;1095;50.992;6.798;2023-05-24T02:33:57;101572.47;;;6.81;94.58
2178;BME280;1095;50.992;6.798;2023-05-24T02:36:25;101577.91;;;6.78;94.51
2178;BME280;1095;50.992;6.798;2023-05-24T02:38:52;101581.88;;;6.71;94.78
2178;BME280;1095;50.992;6.798;2023-05-24T02:41:18;101583.84;;;6.67;95.10
2178;BME280;1095;50.992;6.798;2023-05-24T02:43:47;101570.13;;;6.65;95.18
2178;BME280;1095;50.992;6.798;2023-05-24T02:46:14;101576.44;;;6.74;95.38
2178;BME280;1095;50.992;6.798;2023-05-24T02:48:40;101575.94;;;6.69;95.09
2178;BME280;1095;50.992;6.798;2023-05-24T02:51:08;101578.84;;;6.64;95.13
2178;BME280;1095;50.992;6.798;2023-05-24T02:53:35;101576.50;;;6.61;95.47
2178;BME280;1095;50.992;6.798;2023-05-24T02:56:02;101566.53;;;6.55;95.69
2178;BME280;1095;50.992;6.798;2023-05-24T02:58:28;101573.50;;;6.54;95.85
2178;BME280;1095;50.992;6.798;2023-05-24T03:00:55;101580.47;;;6.54;95.58
2178;BME280;1095;50.992;6.798;2023-05-24T03:03:21;101585.88;;;6.51;96.03
2178;BME280;1095;50.992;6.798;2023-05-24T03:05:48;101573.81;;;6.50;96.12
2178;BME280;1095;50.992;6.798;2023-05-24T03:08:16;101582.75;;;6.46;96.08
2178;BME280;1095;50.992;6.798;2023-05-24T03:10:43;101583.91;;;6.42;95.98
2178;BME280;1095;50.992;6.798;2023-05-24T03:13:09;101579.13;;;6.36;96.26
2178;BME280;1095;50.992;6.798;2023-05-24T03:15:36;101572.25;;;6.35;96.75
2178;BME280;1095;50.992;6.798;2023-05-24T03:18:03;101576.13;;;6.29;96.87
2178;BME280;1095;50.992;6.798;2023-05-24T03:20:29;101576.13;;;6.29;96.83
2178;BME280;1095;50.992;6.798;2023-05-24T03:22:57;101572.78;;;6.27;97.47
2178;BME280;1095;50.992;6.798;2023-05-24T03:25:25;101573.19;;;6.33;97.26
2178;BME280;1095;50.992;6.798;2023-05-24T03:27:52;101587.75;;;6.36;97.49
2178;BME280;1095;50.992;6.798;2023-05-24T03:30:19;101588.16;;;6.43;97.10
2178;BME280;1095;50.992;6.798;2023-05-24T03:32:45;101589.84;;;6.44;97.15
2178;BME280;1095;50.992;6.798;2023-05-24T03:35:12;101589.41;;;6.50;97.10
2178;BME280;1095;50.992;6.798;2023-05-24T03:37:39;101593.16;;;6.58;96.83
2178;BME280;1095;50.992;6.798;2023-05-24T03:40:06;101590.13;;;6.52;96.95
2178;BME280;1095;50.992;6.798;2023-05-24T03:42:35;101577.03;;;6.53;96.74
2178;BME280;1095;50.992;6.798;2023-05-24T03:45:01;101589.19;;;6.53;96.78
2178;BME280;1095;50.992;6.798;2023-05-24T03:47:28;101584.22;;;6.50;96.83
2178;BME280;1095;50.992;6.798;2023-05-24T03:49:54;101586.91;;;6.48;96.68
2178;BME280;1095;50.992;6.798;2023-05-24T03:52:21;101591.91;;;6.51;96.89
2178;BME280;1095;50.992;6.798;2023-05-24T03:54:48;101588.31;;;6.65;96.67
2178;BME280;1095;50.992;6.798;2023-05-24T03:57:14;101588.47;;;6.87;96.51
2178;BME280;1095;50.992;6.798;2023-05-24T03:59:43;101575.22;;;7.03;95.44
2178;BME280;1095;50.992;6.798;2023-05-24T04:02:09;101565.00;;;7.24;94.96
2178;BME280;1095;50.992;6.798;2023-05-24T04:04:36;101563.69;;;7.42;93.96
2178;BME280;1095;50.992;6.798;2023-05-24T04:07:03;101573.19;;;7.54;93.14
2178;BME280;1095;50.992;6.798;2023-05-24T04:09:29;101566.91;;;7.57;92.61
2178;BME280;1095;50.992;6.798;2023-05-24T04:11:56;101582.44;;;7.70;92.17
2178;BME280;1095;50.992;6.798;2023-05-24T04:14:22;101581.81;;;7.90;91.45
2178;BME280;1095;50.992;6.798;2023-05-24T04:16:50;101591.53;;;8.10;91.09
2178;BME280;1095;50.992;6.798;2023-05-24T04:19:18;101574.25;;;8.20;90.56
2178;BME280;1095;50.992;6.798;2023-05-24T04:21:44;101568.69;;;8.25;89.55
2178;BME280;1095;50.992;6.798;2023-05-24T04:24:11;101569.44;;;8.38;89.33
2178;BME280;1095;50.992;6.798;2023-05-24T04:26:37;101566.25;;;8.46;88.53
2178;BME280;1095;50.992;6.798;2023-05-24T04:29:04;101574.28;;;9.08;87.22
2178;BME280;1095;50.992;6.798;2023-05-24T04:31:31;101566.38;;;9.30;85.79
2178;BME280;1095;50.992;6.798;2023-05-24T04:33:59;101553.44;;;9.29;85.40
2178;BME280;1095;50.992;6.798;2023-05-24T04:36:27;101559.53;;;9.18;84.89
2178;BME280;1095;50.992;6.798;2023-05-24T04:38:55;101562.84;;;8.88;85.17
2178;BME280;1095;50.992;6.798;2023-05-24T04:41:27;101577.78;;;8.97;85.97
2178;BME280;1095;50.992;6.798;2023-05-24T04:43:56;101571.31;;;9.13;85.90
2178;BME280;1095;50.992;6.798;2023-05-24T04:46:24;101585.84;;;9.38;85.42
2178;BME280;1095;50.992;6.798;2023-05-24T04:48:50;101583.84;;;9.51;84.88
2178;BME280;1095;50.992;6.798;2023-05-24T04:51:19;101593.00;;;9.45;84.93
2178;BME280;1095;50.992;6.798;2023-05-24T04:53:46;101594.91;;;9.75;84.80
2178;BME280;1095;50.992;6.798;2023-05-24T04:56:12;101599.22;;;10.07;84.31
2178;BME280;1095;50.992;6.798;2023-05-24T04:58:41;101597.28;;;10.20;82.99
2178;BME280;1095;50.992;6.798;2023-05-24T05:01:07;101607.97;;;10.47;82.53
2178;BME280;1095;50.992;6.798;2023-05-24T05:03:34;101609.78;;;10.96;81.36
2178;BME280;1095;50.992;6.798;2023-05-24T05:06:00;101603.31;;;11.01;80.37
2178;BME280;1095;50.992;6.798;2023-05-24T05:08:28;101606.81;;;11.49;79.52
2178;BME280;1095;50.992;6.798;2023-05-24T05:10:55;101604.03;;;11.89;78.14
2178;BME280;1095;50.992;6.798;2023-05-24T05:13:22;101607.91;;;11.95;77.31
2178;BME280;1095;50.992;6.798;2023-05-24T05:15:48;101607.63;;;11.98;76.70
2178;BME280;1095;50.992;6.798;2023-05-24T05:18:15;101606.81;;;12.72;75.78
2178;BME280;1095;50.992;6.798;2023-05-24T05:20:42;101604.13;;;13.44;73.57
2178;BME280;1095;50.992;6.798;2023-05-24T05:23:09;101605.84;;;13.97;71.93
2178;BME280;1095;50.992;6.798;2023-05-24T05:25:37;101603.91;;;14.59;69.74
2178;BME280;1095;50.992;6.798;2023-05-24T05:28:03;101599.81;;;15.39;68.11
2178;BME280;1095;50.992;6.798;2023-05-24T05:30:30;101600.00;;;15.95;66.19
2178;BME280;1095;50.992;6.798;2023-05-24T05:32:57;101590.59;;;15.84;65.46
2178;BME280;1095;50.992;6.798;2023-05-24T05:35:23;101584.81;;;15.97;64.72
2178;BME280;1095;50.992;6.798;2023-05-24T05:37:50;101583.44;;;16.56;63.44
2178;BME280;1095;50.992;6.798;2023-05-24T05:40:16;101578.78;;;16.74;62.91
2178;BME280;1095;50.992;6.798;2023-05-24T05:42:44;101576.22;;;17.12;61.86
2178;BME280;1095;50.992;6.798;2023-05-24T05:45:11;101580.41;;;17.29;61.54
2178;BME280;1095;50.992;6.798;2023-05-24T05:47:38;101583.41;;;16.72;61.88
2178;BME280;1095;50.992;6.798;2023-05-24T05:50:06;101576.31;;;16.73;62.17
2178;BME280;1095;50.992;6.798;2023-05-24T05:52:33;101573.34;;;17.21;61.00
2178;BME280;1095;50.992;6.798;2023-05-24T05:54:59;101578.66;;;16.99;61.36
2178;BME280;1095;50.992;6.798;2023-05-24T05:57:26;101577.69;;;16.91;61.39
2178;BME280;1095;50.992;6.798;2023-05-24T05:59:54;101569.31;;;17.34;60.82
2178;BME280;1095;50.992;6.798;2023-05-24T06:02:20;101568.97;;;17.74;60.01
2178;BME280;1095;50.992;6.798;2023-05-24T06:04:48;101571.91;;;17.79;60.40
2178;BME280;1095;50.992;6.798;2023-05-24T06:07:14;101566.50;;;17.73;59.50
2178;BME280;1095;50.992;6.798;2023-05-24T06:09:41;101567.97;;;17.75;59.86
2178;BME280;1095;50.992;6.798;2023-05-24T06:12:07;101574.84;;;17.84;60.05
2178;BME280;1095;50.992;6.798;2023-05-24T06:14:34;101566.72;;;17.86;59.27
2178;BME280;1095;50.992;6.798;2023-05-24T06:17:03;101567.44;;;17.57;59.60
2178;BME280;1095;50.992;6.798;2023-05-24T06:19:30;101568.97;;;17.51;59.87
2178;BME280;1095;50.992;6.798;2023-05-24T06:21:56;101575.69;;;16.54;62.07
2178;BME280;1095;50.992;6.798;2023-05-24T06:24:23;101573.53;;;17.20;61.28
2178;BME280;1095;50.992;6.798;2023-05-24T06:26:50;101571.81;;;15.54;63.57
2178;BME280;1095;50.992;6.798;2023-05-24T06:29:17;101587.81;;;14.70;66.31
2178;BME280;1095;50.992;6.798;2023-05-24T06:31:44;101572.88;;;16.17;64.25
2178;BME280;1095;50.992;6.798;2023-05-24T06:34:12;101560.06;;;16.84;62.86
2178;BME280;1095;50.992;6.798;2023-05-24T06:36:41;101567.47;;;17.34;62.22
2178;BME280;1095;50.992;6.798;2023-05-24T06:39:07;101566.03;;;16.78;62.84
2178;BME280;1095;50.992;6.798;2023-05-24T06:41:34;101559.47;;;17.42;61.50
2178;BME280;1095;50.992;6.798;2023-05-24T06:44:00;101556.94;;;17.03;61.32
2178;BME280;1095;50.992;6.798;2023-05-24T06:46:27;101561.41;;;18.30;59.98
2178;BME280;1095;50.992;6.798;2023-05-24T06:48:53;101556.47;;;17.83;59.48
2178;BME280;1095;50.992;6.798;2023-05-24T06:54:33;101585.56;;;16.13;63.19
2178;BME280;1095;50.992;6.798;2023-05-24T06:57:12;101584.59;;;16.14;64.11
2178;BME280;1095;50.992;6.798;2023-05-24T06:59:53;101584.31;;;16.01;65.23
2178;BME280;1095;50.992;6.798;2023-05-24T07:02:34;101604.56;;;15.19;66.52
2178;BME280;1095;50.992;6.798;2023-05-24T07:05:00;101596.75;;;14.85;67.37
2178;BME280;1095;50.992;6.798;2023-05-24T07:07:27;101597.53;;;15.60;66.96
2178;BME280;1095;50.992;6.798;2023-05-24T07:09:55;101577.63;;;17.68;63.20
2178;BME280;1095;50.992;6.798;2023-05-24T07:12:21;101562.78;;;17.59;60.25
2178;BME280;1095;50.992;6.798;2023-05-24T07:14:48;101576.56;;;17.54;61.90
2178;BME280;1095;50.992;6.798;2023-05-24T07:17:15;101577.84;;;18.70;60.19
2178;BME280;1095;50.992;6.798;2023-05-24T07:19:42;101588.31;;;19.14;58.52
2178;BME280;1095;50.992;6.798;2023-05-24T07:22:08;101570.72;;;18.11;55.94
2178;BME280;1095;50.992;6.798;2023-05-24T07:24:35;101569.06;;;17.58;58.01
2178;BME280;1095;50.992;6.798;2023-05-24T07:27:04;101573.09;;;17.54;58.14
2178;BME280;1095;50.992;6.798;2023-05-24T07:29:30;101586.56;;;16.20;60.89
2178;BME280;1095;50.992;6.798;2023-05-24T07:31:57;101591.81;;;17.30;59.91
2178;BME280;1095;50.992;6.798;2023-05-24T07:34:25;101582.03;;;16.84;59.15
2178;BME280;1095;50.992;6.798;2023-05-24T07:36:54;101590.03;;;16.60;60.63
2178;BME280;1095;50.992;6.798;2023-05-24T07:39:20;101584.84;;;17.51;59.63
2178;BME280;1095;50.992;6.798;2023-05-24T07:41:47;101588.63;;;18.09;58.42
2178;BME280;1095;50.992;6.798;2023-05-24T07:44:18;101595.50;;;19.63;56.12
2178;BME280;1095;50.992;6.798;2023-05-24T07:46:45;101587.28;;;19.79;54.48
2178;BME280;1095;50.992;6.798;2023-05-24T07:49:11;101582.78;;;18.73;54.62
2178;BME280;1095;50.992;6.798;2023-05-24T07:51:38;101588.78;;;18.52;56.23
2178;BME280;1095;50.992;6.798;2023-05-24T07:54:04;101579.78;;;19.18;54.42
2178;BME280;1095;50.992;6.798;2023-05-24T07:56:31;101589.00;;;18.65;54.69
2178;BME280;1095;50.992;6.798;2023-05-24T07:58:58;101582.84;;;19.01;55.75
2178;BME280;1095;50.992;6.798;2023-05-24T08:01:30;101582.03;;;16.84;58.66
2178;BME280;1095;50.992;6.798;2023-05-24T08:03:56;101587.03;;;16.71;59.01
2178;BME280;1095;50.992;6.798;2023-05-24T08:06:23;101589.16;;;16.37;60.58
2178;BME280;1095;50.992;6.798;2023-05-24T08:08:49;101595.41;;;16.44;61.22
2178;BME280;1095;50.992;6.798;2023-05-24T08:11:16;101580.69;;;16.49;61.33
2178;BME280;1095;50.992;6.798;2023-05-24T08:13:43;101581.25;;;18.19;58.96
2178;BME280;1095;50.992;6.798;2023-05-24T08:16:10;101568.97;;;18.63;56.60
2178;BME280;1095;50.992;6.798;2023-05-24T08:18:38;101574.03;;;20.20;54.81
2178;BME280;1095;50.992;6.798;2023-05-24T08:21:05;101572.25;;;18.79;53.82
2178;BME280;1095;50.992;6.798;2023-05-24T08:23:32;101581.41;;;18.18;55.59
2178;BME280;1095;50.992;6.798;2023-05-24T08:25:58;101581.09;;;17.69;56.60
2178;BME280;1095;50.992;6.798;2023-05-24T08:28:25;101583.75;;;17.23;57.67
2178;BME280;1095;50.992;6.798;2023-05-24T08:30:52;101596.28;;;16.28;60.03
2178;BME280;1095;50.992;6.798;2023-05-24T08:33:19;101587.72;;;16.57;60.36
2178;BME280;1095;50.992;6.798;2023-05-24T08:35:48;101592.34;;;16.71;59.73
2178;BME280;1095;50.992;6.798;2023-05-24T08:38:15;101590.19;;;16.67;59.93
2178;BME280;1095;50.992;6.798;2023-05-24T08:40:41;101586.47;;;16.53;59.54
2178;BME280;1095;50.992;6.798;2023-05-24T08:43:09;101593.72;;;15.96;61.40
2178;BME280;1095;50.992;6.798;2023-05-24T08:45:38;101605.09;;;15.39;62.73
2178;BME280;1095;50.992;6.798;2023-05-24T08:48:06;101609.19;;;15.17;63.79
2178;BME280;1095;50.992;6.798;2023-05-24T08:50:33;101619.41;;;14.70;64.69
2178;BME280;1095;50.992;6.798;2023-05-24T08:53:01;101621.69;;;14.57;65.90
2178;BME280;1095;50.992;6.798;2023-05-24T08:55:31;101621.97;;;14.46;66.45
2178;BME280;1095;50.992;6.798;2023-05-24T08:57:58;101620.66;;;14.50;67.19
2178;BME280;1095;50.992;6.798;2023-05-24T09:00:26;101598.50;;;14.60;66.66
2178;BME280;1095;50.992;6.798;2023-05-24T09:02:52;101596.13;;;14.91;66.02
2178;BME280;1095;50.992;6.798;2023-05-24T09:05:19;101586.09;;;16.09;64.26
2178;BME280;1095;50.992;6.798;2023-05-24T09:07:47;101574.94;;;16.38;63.04
2178;BME280;1095;50.992;6.798;2023-05-24T09:10:18;101557.75;;;16.50;61.07
2178;BME280;1095;50.992;6.798;2023-05-24T09:12:49;101566.38;;;16.75;61.56
2178;BME280;1095;50.992;6.798;2023-05-24T09:15:17;101566.38;;;16.75;61.16
2178;BME280;1095;50.992;6.798;2023-05-24T09:17:44;101568.16;;;16.43;61.79
2178;BME280;1095;50.992;6.798;2023-05-24T09:20:11;101582.44;;;16.10;62.27
2178;BME280;1095;50.992;6.798;2023-05-24T09:22:40;101582.34;;;15.54;63.91
2178;BME280;1095;50.992;6.798;2023-05-24T09:25:11;101584.16;;;15.46;64.01
2178;BME280;1095;50.992;6.798;2023-05-24T09:27:39;101585.38;;;15.59;64.64
2178;BME280;1095;50.992;6.798;2023-05-24T09:30:08;101576.06;;;15.31;64.50
2178;BME280;1095;50.992;6.798;2023-05-24T09:32:35;101568.16;;;15.88;63.48
2178;BME280;1095;50.992;6.798;2023-05-24T09:35:02;101564.38;;;15.66;63.06
2178;BME280;1095;50.992;6.798;2023-05-24T09:37:35;101549.72;;;15.55;62.75
2178;BME280;1095;50.992;6.798;2023-05-24T09:40:04;101550.25;;;15.59;62.76
2178;BME280;1095;50.992;6.798;2023-05-24T09:42:33;101555.09;;;16.03;62.16
2178;BME280;1095;50.992;6.798;2023-05-24T09:45:02;101549.06;;;16.25;61.87
2178;BME280;1095;50.992;6.798;2023-05-24T09:47:32;101548.94;;;16.57;61.03
2178;BME280;1095;50.992;6.798;2023-05-24T09:49:59;101544.53;;;16.50;60.88
2178;BME280;1095;50.992;6.798;2023-05-24T09:52:26;101547.50;;;16.86;61.01
2178;BME280;1095;50.992;6.798;2023-05-24T09:54:53;101554.38;;;16.56;60.86
2178;BME280;1095;50.992;6.798;2023-05-24T09:57:20;101550.81;;;16.49;60.63
2178;BME280;1095;50.992;6.798;2023-05-24T09:59:48;101551.31;;;16.05;61.70
2178;BME280;1095;50.992;6.798;2023-05-24T10:02:16;101546.59;;;16.63;61.55
2178;BME280;1095;50.992;6.798;2023-05-24T10:04:45;101546.00;;;17.06;60.87
2178;BME280;1095;50.992;6.798;2023-05-24T10:07:12;101537.22;;;17.51;59.77
2178;BME280;1095;50.992;6.798;2023-05-24T10:09:39;101543.16;;;18.20;58.24
2178;BME280;1095;50.992;6.798;2023-05-24T10:12:07;101536.84;;;17.77;57.96
2178;BME280;1095;50.992;6.798;2023-05-24T10:14:35;101529.44;;;17.50;58.47
2178;BME280;1095;50.992;6.798;2023-05-24T10:17:02;101537.47;;;16.42;59.72
2178;BME280;1095;50.992;6.798;2023-05-24T10:19:31;101541.81;;;16.66;60.97
2178;BME280;1095;50.992;6.798;2023-05-24T10:21:58;101543.28;;;16.60;61.09
2178;BME280;1095;50.992;6.798;2023-05-24T10:24:32;101540.44;;;17.24;61.12
2178;BME280;1095;50.992;6.798;2023-05-24T10:27:03;101533.66;;;18.26;58.60
2178;BME280;1095;50.992;6.798;2023-05-24T10:29:42;101529.81;;;17.99;56.49
2178;BME280;1095;50.992;6.798;2023-05-24T10:32:12;101537.84;;;18.20;56.76
2178;BME280;1095;50.992;6.798;2023-05-24T10:34:42;101531.56;;;17.54;57.18
2178;BME280;1095;50.992;6.798;2023-05-24T10:37:09;101545.53;;;17.48;58.40
2178;BME280;1095;50.992;6.798;2023-05-24T10:39:36;101544.66;;;17.33;58.99
2178;BME280;1095;50.992;6.798;2023-05-24T10:42:03;101561.22;;;16.81;60.20
2178;BME280;1095;50.992;6.798;2023-05-24T10:44:30;101554.03;;;16.67;60.94
2178;BME280;1095;50.992;6.798;2023-05-24T10:47:08;101541.72;;;17.28;59.81
2178;BME280;1095;50.992;6.798;2023-05-24T10:49:35;101546.91;;;16.99;60.43
2178;BME280;1095;50.992;6.798;2023-05-24T10:52:11;101551.75;;;16.56;60.61
2178;BME280;1095;50.992;6.798;2023-05-24T10:54:38;101543.84;;;17.10;60.49
2178;BME280;1095;50.992;6.798;2023-05-24T10:57:06;101539.50;;;17.17;59.65
2178;BME280;1095;50.992;6.798;2023-05-24T10:59:34;101528.84;;;17.02;58.99
2178;BME280;1095;50.992;6.798;2023-05-24T11:02:05;101519.03;;;17.11;58.98
2178;BME280;1095;50.992;6.798;2023-05-24T11:04:36;101535.50;;;17.44;59.38
2178;BME280;1095;50.992;6.798;2023-05-24T11:07:05;101522.16;;;17.14;59.18
2178;BME280;1095;50.992;6.798;2023-05-24T11:09:35;101529.25;;;17.37;59.16
2178;BME280;1095;50.992;6.798;2023-05-24T11:12:05;101514.84;;;17.77;57.94
2178;BME280;1095;50.992;6.798;2023-05-24T11:14:35;101519.03;;;17.71;57.87
2178;BME280;1095;50.992;6.798;2023-05-24T11:17:02;101518.78;;;17.96;57.69
2178;BME280;1095;50.992;6.798;2023-05-24T11:19:32;101507.34;;;17.66;56.80
2178;BME280;1095;50.992;6.798;2023-05-24T11:22:01;101520.09;;;17.02;57.42
2178;BME280;1095;50.992;6.798;2023-05-24T11:24:30;101524.50;;;17.32;58.11
2178;BME280;1095;50.992;6.798;2023-05-24T11:27:00;101519.22;;;17.70;57.56
2178;BME280;1095;50.992;6.798;2023-05-24T11:29:28;101519.78;;;18.09;57.38
2178;BME280;1095;50.992;6.798;2023-05-24T11:31:55;101521.13;;;18.35;56.38
2178;BME280;1095;50.992;6.798;2023-05-24T11:34:29;101508.88;;;18.34;56.17
2178;BME280;1095;50.992;6.798;2023-05-24T11:36:57;101510.19;;;18.59;55.60
2178;BME280;1095;50.992;6.798;2023-05-24T11:39:28;101508.16;;;18.25;56.09
2178;BME280;1095;50.992;6.798;2023-05-24T11:41:55;101513.19;;;17.01;57.45
2178;BME280;1095;50.992;6.798;2023-05-24T11:44:24;101504.56;;;16.53;59.24
2178;BME280;1095;50.992;6.798;2023-05-24T11:46:56;101508.88;;;16.46;59.59
2178;BME280;1095;50.992;6.798;2023-05-24T11:49:23;101520.88;;;16.17;60.54
2178;BME280;1095;50.992;6.798;2023-05-24T11:51:53;101523.16;;;15.73;61.08
2178;BME280;1095;50.992;6.798;2023-05-24T11:54:20;101512.28;;;15.60;61.52
2178;BME280;1095;50.992;6.798;2023-05-24T11:56:47;101526.94;;;15.79;61.72
2178;BME280;1095;50.992;6.798;2023-05-24T11:59:16;101515.13;;;15.58;61.95
2178;BME280;1095;50.992;6.798;2023-05-24T12:01:45;101514.28;;;15.42;62.04
2178;BME280;1095;50.992;6.798;2023-05-24T12:04:12;101516.91;;;15.34;62.30
2178;BME280;1095;50.992;6.798;2023-05-24T12:06:40;101508.19;;;15.25;61.91
2178;BME280;1095;50.992;6.798;2023-05-24T12:09:08;101515.22;;;14.84;62.40
2178;BME280;1095;50.992;6.798;2023-05-24T12:11:38;101516.84;;;14.69;62.96
2178;BME280;1095;50.992;6.798;2023-05-24T12:14:06;101510.44;;;14.63;62.54
2178;BME280;1095;50.992;6.798;2023-05-24T12:16:36;101523.06;;;14.51;62.95
2178;BME280;1095;50.992;6.798;2023-05-24T12:19:04;101524.25;;;14.73;63.09
2178;BME280;1095;50.992;6.798;2023-05-24T12:21:31;101513.28;;;15.18;62.32
2178;BME280;1095;50.992;6.798;2023-05-24T12:24:09;101509.97;;;15.49;61.76
2178;BME280;1095;50.992;6.798;2023-05-24T12:26:39;101509.50;;;15.21;62.07
2178;BME280;1095;50.992;6.798;2023-05-24T12:29:06;101503.25;;;15.06;62.22
2178;BME280;1095;50.992;6.798;2023-05-24T12:31:34;101508.84;;;15.27;62.49
2178;BME280;1095;50.992;6.798;2023-05-24T12:34:01;101504.06;;;15.39;61.89
2178;BME280;1095;50.992;6.798;2023-05-24T12:36:31;101503.56;;;15.35;61.62
2178;BME280;1095;50.992;6.798;2023-05-24T12:38:58;101506.50;;;15.73;61.51
2178;BME280;1095;50.992;6.798;2023-05-24T12:41:25;101502.38;;;15.70;61.13
2178;BME280;1095;50.992;6.798;2023-05-24T12:43:53;101489.03;;;15.72;60.44
2178;BME280;1095;50.992;6.798;2023-05-24T12:46:21;101501.81;;;15.99;60.64
2178;BME280;1095;50.992;6.798;2023-05-24T12:48:48;101487.88;;;16.52;59.87
2178;BME280;1095;50.992;6.798;2023-05-24T12:51:14;101493.91;;;16.69;59.04
2178;BME280;1095;50.992;6.798;2023-05-24T12:53:42;101490.16;;;16.86;57.94
2178;BME280;1095;50.992;6.798;2023-05-24T12:56:09;101482.56;;;17.06;56.98
2178;BME280;1095;50.992;6.798;2023-05-24T12:58:36;101493.38;;;17.72;57.18
2178;BME280;1095;50.992;6.798;2023-05-24T13:01:02;101484.91;;;17.76;56.04
2178;BME280;1095;50.992;6.798;2023-05-24T13:03:29;101486.16;;;17.66;55.74
2178;BME280;1095;50.992;6.798;2023-05-24T13:05:56;101477.41;;;17.80;55.79
2178;BME280;1095;50.992;6.798;2023-05-24T13:08:24;101468.25;;;17.38;55.82
2178;BME280;1095;50.992;6.798;2023-05-24T13:10:54;101479.91;;;17.29;56.60
2178;BME280;1095;50.992;6.798;2023-05-24T13:13:21;101480.81;;;17.36;57.03
2178;BME280;1095;50.992;6.798;2023-05-24T13:15:48;101480.47;;;17.39;57.28
2178;BME280;1095;50.992;6.798;2023-05-24T13:18:15;101490.75;;;17.34;57.42
2178;BME280;1095;50.992;6.798;2023-05-24T13:20:41;101492.03;;;16.78;57.63
2178;BME280;1095;50.992;6.798;2023-05-24T13:23:08;101494.03;;;16.45;58.02